sensor_id;sensor_type;location;lat;lon;timestamp;pressure;altitude;pressure_sealevel;temperature;humidity
23363;BME280;11853;48.080;11.960;2023-04-28T00:02:00;94811.00;;;10.34;92.34
23363;BME280;11853;48.080;11.960;2023-04-28T00:04:27;94808.66;;;10.31;92.14
23363;BME280;11853;48.080;11.960;2023-04-28T00:06:52;94815.63;;;10.32;91.74
23363;BME280;11853;48.080;11.960;2023-04-28T00:09:18;94812.84;;;10.33;91.67
23363;BME280;11853;48.080;11.960;2023-04-28T00:11:44;94807.16;;;10.28;91.44
23363;BME280;11853;48.080;11.960;2023-04-28T00:14:10;94809.94;;;10.27;92.01
23363;BME280;11853;48.080;11.960;2023-04-28T00:16:35;94801.84;;;10.28;92.19
23363;BME280;11853;48.080;11.960;2023-04-28T00:19:01;94810.50;;;10.30;92.22
23363;BME280;11853;48.080;11.960;2023-04-28T00:21:27;94803.38;;;10.31;92.25
23363;BME280;11853;48.080;11.960;2023-04-28T00:23:53;94789.41;;;10.29;92.55
23363;BME280;11853;48.080;11.960;2023-04-28T00:26:18;94790.09;;;10.31;92.28
23363;BME280;11853;48.080;11.960;2023-04-28T00:28:44;94799.41;;;10.35;92.41
23363;BME280;11853;48.080;11.960;2023-04-28T00:31:11;94790.63;;;10.34;91.80
23363;BME280;11853;48.080;11.960;2023-04-28T00:33:37;94788.41;;;10.30;92.37
23363;BME280;11853;48.080;11.960;2023-04-28T00:36:03;94788.09;;;10.33;91.83
23363;BME280;11853;48.080;11.960;2023-04-28T00:38:29;94785.38;;;10.25;92.77
23363;BME280;11853;48.080;11.960;2023-04-28T00:40:54;94790.00;;;10.23;93.63
23363;BME280;11853;48.080;11.960;2023-04-28T00:43:20;94783.66;;;10.33;93.89
23363;BME280;11853;48.080;11.960;2023-04-28T00:45:46;94775.47;;;10.27;93.89
23363;BME280;11853;48.080;11.960;2023-04-28T00:48:12;94784.38;;;10.26;94.09
23363;BME280;11853;48.080;11.960;2023-04-28T00:50:38;94784.69;;;10.23;94.80
23363;BME280;11853;48.080;11.960;2023-04-28T00:53:04;94779.41;;;10.23;95.05
23363;BME280;11853;48.080;11.960;2023-04-28T00:55:31;94773.41;;;10.21;95.41
23363;BME280;11853;48.080;11.960;2023-04-28T00:57:59;94771.44;;;10.23;95.79
23363;BME280;11853;48.080;11.960;2023-04-28T01:00:24;94768.78;;;10.23;95.46
23363;BME280;11853;48.080;11.960;2023-04-28T01:02:51;94772.13;;;10.25;95.77
23363;BME280;11853;48.080;11.960;2023-04-28T01:05:18;94766.53;;;10.28;95.15
23363;BME280;11853;48.080;11.960;2023-04-28T01:07:43;94770.84;;;10.29;95.51
23363;BME280;11853;48.080;11.960;2023-04-28T01:10:09;94775.84;;;10.32;94.91
23363;BME280;11853;48.080;11.960;2023-04-28T01:12:35;94771.84;;;10.28;95.76
23363;BME280;11853;48.080;11.960;2023-04-28T01:15:01;94772.13;;;10.25;95.99
23363;BME280;11853;48.080;11.960;2023-04-28T01:17:26;94763.06;;;10.27;95.70
23363;BME280;11853;48.080;11.960;2023-04-28T01:19:52;94762.75;;;10.30;94.39
23363;BME280;11853;48.080;11.960;2023-04-28T01:22:17;94751.59;;;10.27;95.95
23363;BME280;11853;48.080;11.960;2023-04-28T01:24:43;94759.25;;;10.30;95.89
23363;BME280;11853;48.080;11.960;2023-04-28T01:27:09;94745.06;;;10.21;96.47
23363;BME280;11853;48.080;11.960;2023-04-28T01:29:34;94746.75;;;10.22;96.77
23363;BME280;11853;48.080;11.960;2023-04-28T01:32:00;94750.91;;;10.25;96.38
23363;BME280;11853;48.080;11.960;2023-04-28T01:34:25;94737.50;;;10.26;96.44
23363;BME280;11853;48.080;11.960;2023-04-28T01:36:51;94744.72;;;10.34;96.47
23363;BME280;11853;48.080;11.960;2023-04-28T01:39:16;94738.03;;;10.30;96.13
23363;BME280;11853;48.080;11.960;2023-04-28T01:41:42;94740.38;;;10.33;96.24
23363;BME280;11853;48.080;11.960;2023-04-28T01:44:08;94734.41;;;10.31;96.30
23363;BME280;11853;48.080;11.960;2023-04-28T01:46:33;94736.06;;;10.32;96.77
23363;BME280;11853;48.080;11.960;2023-04-28T01:48:59;94738.41;;;10.35;96.30
23363;BME280;11853;48.080;11.960;2023-04-28T01:51:25;94741.00;;;10.27;96.30
23363;BME280;11853;48.080;11.960;2023-04-28T01:53:51;94739.63;;;10.23;96.62
23363;BME280;11853;48.080;11.960;2023-04-28T01:56:17;94747.56;;;10.23;97.32
23363;BME280;11853;48.080;11.960;2023-04-28T01:58:42;94744.94;;;10.23;96.84
23363;BME280;11853;48.080;11.960;2023-04-28T02:01:08;94746.31;;;10.27;96.57
23363;BME280;11853;48.080;11.960;2023-04-28T02:03:33;94747.41;;;10.24;97.50
23363;BME280;11853;48.080;11.960;2023-04-28T02:05:59;94746.69;;;10.14;98.44
23363;BME280;11853;48.080;11.960;2023-04-28T02:08:25;94742.38;;;10.13;98.78
23363;BME280;11853;48.080;11.960;2023-04-28T02:10:50;94739.56;;;10.14;99.13
23363;BME280;11853;48.080;11.960;2023-04-28T02:13:16;94748.72;;;10.20;98.89
23363;BME280;11853;48.080;11.960;2023-04-28T02:15:42;94748.84;;;10.19;99.22
23363;BME280;11853;48.080;11.960;2023-04-28T02:18:09;94752.97;;;10.13;99.05
23363;BME280;11853;48.080;11.960;2023-04-28T02:20:34;94744.84;;;10.14;98.79
23363;BME280;11853;48.080;11.960;2023-04-28T02:23:00;94755.47;;;10.14;98.54
23363;BME280;11853;48.080;11.960;2023-04-28T02:25:25;94744.84;;;10.14;98.50
23363;BME280;11853;48.080;11.960;2023-04-28T02:27:51;94739.25;;;10.18;98.16
23363;BME280;11853;48.080;11.960;2023-04-28T02:30:17;94734.16;;;10.24;98.31
23363;BME280;11853;48.080;11.960;2023-04-28T02:32:42;94732.66;;;10.04;99.70
23363;BME280;11853;48.080;11.960;2023-04-28T02:35:08;94738.22;;;10.10;98.58
23363;BME280;11853;48.080;11.960;2023-04-28T02:37:33;94743.13;;;10.05;98.61
23363;BME280;11853;48.080;11.960;2023-04-28T02:39:59;94741.38;;;10.14;99.26
23363;BME280;11853;48.080;11.960;2023-04-28T02:42:24;94744.63;;;10.08;99.38
23363;BME280;11853;48.080;11.960;2023-04-28T02:44:50;94750.25;;;10.05;99.77
23363;BME280;11853;48.080;11.960;2023-04-28T02:47:15;94740.78;;;9.84;100.00
23363;BME280;11853;48.080;11.960;2023-04-28T02:49:41;94745.63;;;9.89;100.00
23363;BME280;11853;48.080;11.960;2023-04-28T02:52:06;94737.66;;;9.89;100.00
23363;BME280;11853;48.080;11.960;2023-04-28T02:54:32;94734.53;;;9.76;100.00
23363;BME280;11853;48.080;11.960;2023-04-28T02:56:59;94746.53;;;9.80;100.00
23363;BME280;11853;48.080;11.960;2023-04-28T02:59:25;94756.69;;;9.84;100.00
23363;BME280;11853;48.080;11.960;2023-04-28T03:01:51;94747.88;;;9.84;100.00
23363;BME280;11853;48.080;11.960;2023-04-28T03:04:17;94756.22;;;9.89;100.00
23363;BME280;11853;48.080;11.960;2023-04-28T03:06:42;94750.31;;;9.95;100.00
23363;BME280;11853;48.080;11.960;2023-04-28T03:09:09;94730.78;;;9.96;100.00
23363;BME280;11853;48.080;11.960;2023-04-28T03:11:35;94721.78;;;9.89;100.00
23363;BME280;11853;48.080;11.960;2023-04-28T03:14:00;94713.91;;;9.79;100.00
23363;BME280;11853;48.080;11.960;2023-04-28T03:16:26;94714.22;;;9.76;100.00
23363;BME280;11853;48.080;11.960;2023-04-28T03:18:52;94716.25;;;9.82;100.00
23363;BME280;11853;48.080;11.960;2023-04-28T03:21:17;94714.66;;;9.72;100.00
23363;BME280;11853;48.080;11.960;2023-04-28T03:23:43;94714.03;;;9.78;100.00
23363;BME280;11853;48.080;11.960;2023-04-28T03:26:09;94704.81;;;9.82;100.00
23363;BME280;11853;48.080;11.960;2023-04-28T03:29:11;94688.78;;;9.65;100.00
23363;BME280;11853;48.080;11.960;2023-04-28T03:31:37;94689.25;;;9.79;100.00
23363;BME280;11853;48.080;11.960;2023-04-28T03:34:02;94695.50;;;9.78;100.00
23363;BME280;11853;48.080;11.960;2023-04-28T03:36:28;94687.03;;;9.74;100.00
23363;BME280;11853;48.080;11.960;2023-04-28T03:38:54;94693.63;;;9.70;100.00
23363;BME280;11853;48.080;11.960;2023-04-28T03:41:20;94692.47;;;9.73;100.00
23363;BME280;11853;48.080;11.960;2023-04-28T03:43:45;94695.66;;;9.76;100.00
23363;BME280;11853;48.080;11.960;2023-04-28T03:46:11;94693.75;;;9.68;100.00
23363;BME280;11853;48.080;11.960;2023-04-28T03:48:36;94699.88;;;9.87;100.00
23363;BME280;11853;48.080;11.960;2023-04-28T03:51:02;94708.00;;;9.85;100.00
23363;BME280;11853;48.080;11.960;2023-04-28T03:53:28;94705.28;;;9.77;100.00
23363;BME280;11853;48.080;11.960;2023-04-28T03:55:54;94705.47;;;9.84;100.00
23363;BME280;11853;48.080;11.960;2023-04-28T03:58:19;94714.50;;;9.73;100.00
23363;BME280;11853;48.080;11.960;2023-04-28T04:00:45;94705.66;;;9.64;100.00
23363;BME280;11853;48.080;11.960;2023-04-28T04:03:11;94699.19;;;9.67;100.00
23363;BME280;11853;48.080;11.960;2023-04-28T04:05:39;94700.94;;;9.58;100.00
23363;BME280;11853;48.080;11.960;2023-04-28T04:08:05;94682.78;;;9.63;100.00
23363;BME280;11853;48.080;11.960;2023-04-28T04:10:31;94703.66;;;9.66;100.00
23363;BME280;11853;48.080;11.960;2023-04-28T04:12:56;94700.38;;;9.64;100.00
23363;BME280;11853;48.080;11.960;2023-04-28T04:15:22;94712.16;;;9.70;100.00
23363;BME280;11853;48.080;11.960;2023-04-28T04:17:48;94699.44;;;9.74;100.00
23363;BME280;11853;48.080;11.960;2023-04-28T04:20:13;94697.63;;;9.74;100.00
23363;BME280;11853;48.080;11.960;2023-04-28T04:22:39;94698.84;;;9.80;100.00
23363;BME280;11853;48.080;11.960;2023-04-28T04:25:05;94704.22;;;9.88;100.00
23363;BME280;11853;48.080;11.960;2023-04-28T04:27:31;94704.88;;;9.90;100.00
23363;BME280;11853;48.080;11.960;2023-04-28T04:29:57;94715.56;;;9.80;100.00
23363;BME280;11853;48.080;11.960;2023-04-28T04:32:22;94722.28;;;9.75;100.00
23363;BME280;11853;48.080;11.960;2023-04-28T04:34:48;94730.31;;;9.83;100.00
23363;BME280;11853;48.080;11.960;2023-04-28T04:37:13;94731.84;;;9.85;100.00
23363;BME280;11853;48.080;11.960;2023-04-28T04:39:39;94721.38;;;9.84;100.00
23363;BME280;11853;48.080;11.960;2023-04-28T04:42:05;94720.16;;;9.78;100.00
23363;BME280;11853;48.080;11.960;2023-04-28T04:44:30;94714.72;;;9.80;100.00
23363;BME280;11853;48.080;11.960;2023-04-28T04:46:56;94715.44;;;9.82;100.00
23363;BME280;11853;48.080;11.960;2023-04-28T04:49:22;94709.34;;;9.72;100.00
23363;BME280;11853;48.080;11.960;2023-04-28T04:51:47;94704.88;;;9.90;100.00
23363;BME280;11853;48.080;11.960;2023-04-28T04:54:13;94709.34;;;9.89;100.00
23363;BME280;11853;48.080;11.960;2023-04-28T04:56:39;94713.81;;;9.89;100.00
23363;BME280;11853;48.080;11.960;2023-04-28T04:59:04;94697.09;;;9.88;100.00
23363;BME280;11853;48.080;11.960;2023-04-28T05:01:30;94700.66;;;9.79;100.00
23363;BME280;11853;48.080;11.960;2023-04-28T05:03:56;94706.09;;;9.78;100.00
23363;BME280;11853;48.080;11.960;2023-04-28T05:06:22;94693.84;;;9.77;100.00
23363;BME280;11853;48.080;11.960;2023-04-28T05:08:47;94689.59;;;9.84;100.00
23363;BME280;11853;48.080;11.960;2023-04-28T05:11:14;94695.78;;;10.10;100.00
23363;BME280;11853;48.080;11.960;2023-04-28T05:13:40;94698.06;;;10.05;100.00
23363;BME280;11853;48.080;11.960;2023-04-28T05:16:06;94693.19;;;10.19;100.00
23363;BME280;11853;48.080;11.960;2023-04-28T05:18:31;94704.41;;;10.12;100.00
23363;BME280;11853;48.080;11.960;2023-04-28T05:20:57;94703.78;;;10.19;100.00
23363;BME280;11853;48.080;11.960;2023-04-28T05:23:23;94686.41;;;10.16;100.00
23363;BME280;11853;48.080;11.960;2023-04-28T05:25:49;94704.56;;;10.11;100.00
23363;BME280;11853;48.080;11.960;2023-04-28T05:28:15;94702.63;;;10.13;100.00
23363;BME280;11853;48.080;11.960;2023-04-28T05:30:40;94696.63;;;10.11;100.00
23363;BME280;11853;48.080;11.960;2023-04-28T05:33:07;94699.28;;;10.11;100.00
23363;BME280;11853;48.080;11.960;2023-04-28T05:35:33;94699.41;;;10.09;100.00
23363;BME280;11853;48.080;11.960;2023-04-28T05:37:59;94706.75;;;10.15;100.00
23363;BME280;11853;48.080;11.960;2023-04-28T05:40:25;94704.66;;;10.19;100.00
23363;BME280;11853;48.080;11.960;2023-04-28T05:42:51;94706.44;;;10.19;100.00
23363;BME280;11853;48.080;11.960;2023-04-28T05:45:17;94712.34;;;10.12;100.00
23363;BME280;11853;48.080;11.960;2023-04-28T05:47:43;94704.94;;;10.16;100.00
23363;BME280;11853;48.080;11.960;2023-04-28T05:50:10;94711.75;;;10.19;100.00
23363;BME280;11853;48.080;11.960;2023-04-28T05:52:36;94707.28;;;10.19;100.00
23363;BME280;11853;48.080;11.960;2023-04-28T05:55:01;94708.81;;;10.22;100.00
23363;BME280;11853;48.080;11.960;2023-04-28T05:57:27;94719.41;;;10.22;100.00
23363;BME280;11853;48.080;11.960;2023-04-28T05:59:53;94710.78;;;10.20;100.00
23363;BME280;11853;48.080;11.960;2023-04-28T06:02:19;94699.25;;;10.29;100.00
23363;BME280;11853;48.080;11.960;2023-04-28T06:04:45;94706.22;;;10.30;100.00
23363;BME280;11853;48.080;11.960;2023-04-28T06:07:10;94711.97;;;10.25;100.00
23363;BME280;11853;48.080;11.960;2023-04-28T06:09:36;94709.25;;;10.35;100.00
23363;BME280;11853;48.080;11.960;2023-04-28T06:12:02;94695.31;;;10.33;100.00
23363;BME280;11853;48.080;11.960;2023-04-28T06:14:28;94705.91;;;10.33;100.00
23363;BME280;11853;48.080;11.960;2023-04-28T06:16:53;94711.91;;;10.35;100.00
23363;BME280;11853;48.080;11.960;2023-04-28T06:19:19;94712.91;;;10.34;100.00
23363;BME280;11853;48.080;11.960;2023-04-28T06:21:45;94710.63;;;10.39;100.00
23363;BME280;11853;48.080;11.960;2023-04-28T06:24:12;94717.56;;;10.40;100.00
23363;BME280;11853;48.080;11.960;2023-04-28T06:26:38;94710.63;;;10.39;100.00
23363;BME280;11853;48.080;11.960;2023-04-28T06:29:04;94715.06;;;10.38;100.00
23363;BME280;11853;48.080;11.960;2023-04-28T06:31:30;94718.09;;;10.44;100.00
23363;BME280;11853;48.080;11.960;2023-04-28T06:33:55;94730.59;;;10.51;100.00
23363;BME280;11853;48.080;11.960;2023-04-28T06:36:21;94735.72;;;10.53;100.00
23363;BME280;11853;48.080;11.960;2023-04-28T06:38:47;94743.75;;;10.61;100.00
23363;BME280;11853;48.080;11.960;2023-04-28T06:41:12;94737.97;;;10.66;100.00
23363;BME280;11853;48.080;11.960;2023-04-28T06:43:38;94739.13;;;10.63;100.00
23363;BME280;11853;48.080;11.960;2023-04-28T06:46:04;94736.06;;;10.76;100.00
23363;BME280;11853;48.080;11.960;2023-04-28T06:48:30;94737.78;;;10.85;100.00
23363;BME280;11853;48.080;11.960;2023-04-28T06:50:55;94718.47;;;10.75;100.00
23363;BME280;11853;48.080;11.960;2023-04-28T06:53:21;94727.63;;;10.19;100.00
23363;BME280;11853;48.080;11.960;2023-04-28T06:55:47;94723.13;;;10.11;100.00
23363;BME280;11853;48.080;11.960;2023-04-28T06:58:12;94735.25;;;10.13;100.00
23363;BME280;11853;48.080;11.960;2023-04-28T07:00:38;94729.03;;;10.05;100.00
23363;BME280;11853;48.080;11.960;2023-04-28T07:03:04;94719.16;;;10.15;100.00
23363;BME280;11853;48.080;11.960;2023-04-28T07:05:31;94717.72;;;10.21;100.00
23363;BME280;11853;48.080;11.960;2023-04-28T07:07:57;94709.63;;;10.22;100.00
23363;BME280;11853;48.080;11.960;2023-04-28T07:10:23;94698.19;;;10.40;100.00
23363;BME280;11853;48.080;11.960;2023-04-28T07:12:49;94696.81;;;10.35;100.00
23363;BME280;11853;48.080;11.960;2023-04-28T07:15:17;94696.44;;;10.48;100.00
23363;BME280;11853;48.080;11.960;2023-04-28T07:17:43;94693.47;;;10.51;100.00
23363;BME280;11853;48.080;11.960;2023-04-28T07:20:09;94693.34;;;10.61;100.00
23363;BME280;11853;48.080;11.960;2023-04-28T07:22:34;94703.38;;;10.75;100.00
23363;BME280;11853;48.080;11.960;2023-04-28T07:25:00;94693.03;;;10.90;100.00
23363;BME280;11853;48.080;11.960;2023-04-28T07:27:26;94702.78;;;10.90;100.00
23363;BME280;11853;48.080;11.960;2023-04-28T07:29:58;94695.19;;;10.95;100.00
23363;BME280;11853;48.080;11.960;2023-04-28T07:32:24;94695.91;;;11.05;100.00
23363;BME280;11853;48.080;11.960;2023-04-28T07:34:49;94691.81;;;11.19;100.00
23363;BME280;11853;48.080;11.960;2023-04-28T07:37:15;94688.53;;;11.25;100.00
23363;BME280;11853;48.080;11.960;2023-04-28T07:39:41;94692.66;;;11.19;100.00
23363;BME280;11853;48.080;11.960;2023-04-28T07:42:07;94689.78;;;11.13;100.00
23363;BME280;11853;48.080;11.960;2023-04-28T07:44:34;94680.16;;;11.12;100.00
23363;BME280;11853;48.080;11.960;2023-04-28T07:47:00;94672.97;;;11.04;100.00
23363;BME280;11853;48.080;11.960;2023-04-28T07:49:27;94683.28;;;11.07;100.00
23363;BME280;11853;48.080;11.960;2023-04-28T07:51:53;94690.47;;;11.15;100.00
23363;BME280;11853;48.080;11.960;2023-04-28T07:54:24;94689.66;;;11.22;100.00
23363;BME280;11853;48.080;11.960;2023-04-28T07:56:50;94683.53;;;11.22;100.00
23363;BME280;11853;48.080;11.960;2023-04-28T07:59:15;94674.56;;;11.23;100.00
23363;BME280;11853;48.080;11.960;2023-04-28T08:01:41;94679.69;;;11.24;100.00
23363;BME280;11853;48.080;11.960;2023-04-28T08:04:07;94678.19;;;11.14;100.00
23363;BME280;11853;48.080;11.960;2023-04-28T08:06:33;94685.47;;;11.12;100.00
23363;BME280;11853;48.080;11.960;2023-04-28T08:09:00;94683.28;;;11.07;100.00
23363;BME280;11853;48.080;11.960;2023-04-28T08:11:27;94693.56;;;11.10;100.00
23363;BME280;11853;48.080;11.960;2023-04-28T08:13:52;94690.94;;;11.10;100.00
23363;BME280;11853;48.080;11.960;2023-04-28T08:16:18;94700.56;;;11.11;100.00
23363;BME280;11853;48.080;11.960;2023-04-28T08:18:44;94699.94;;;11.17;100.00
23363;BME280;11853;48.080;11.960;2023-04-28T08:21:10;94705.09;;;11.19;100.00
23363;BME280;11853;48.080;11.960;2023-04-28T08:23:36;94703.09;;;11.21;100.00
23363;BME280;11853;48.080;11.960;2023-04-28T08:26:01;94703.44;;;11.26;100.00
23363;BME280;11853;48.080;11.960;2023-04-28T08:28:27;94689.69;;;11.31;100.00
23363;BME280;11853;48.080;11.960;2023-04-28T08:30:53;94694.38;;;11.45;100.00
23363;BME280;11853;48.080;11.960;2023-04-28T08:33:19;94693.19;;;11.31;100.00
23363;BME280;11853;48.080;11.960;2023-04-28T08:35:45;94680.56;;;11.41;100.00
23363;BME280;11853;48.080;11.960;2023-04-28T08:38:11;94683.75;;;11.37;100.00
23363;BME280;11853;48.080;11.960;2023-04-28T08:40:39;94691.16;;;11.25;100.00
23363;BME280;11853;48.080;11.960;2023-04-28T08:43:07;94682.06;;;11.27;100.00
23363;BME280;11853;48.080;11.960;2023-04-28T08:45:40;94679.06;;;11.31;100.00
23363;BME280;11853;48.080;11.960;2023-04-28T08:48:13;94681.72;;;11.39;100.00
23363;BME280;11853;48.080;11.960;2023-04-28T08:50:43;94683.09;;;11.43;100.00
23363;BME280;11853;48.080;11.960;2023-04-28T08:53:10;94676.25;;;11.32;100.00
23363;BME280;11853;48.080;11.960;2023-04-28T08:55:37;94674.63;;;11.47;100.00
23363;BME280;11853;48.080;11.960;2023-04-28T08:58:03;94679.44;;;11.52;100.00
23363;BME280;11853;48.080;11.960;2023-04-28T09:00:29;94671.16;;;11.55;100.00
23363;BME280;11853;48.080;11.960;2023-04-28T09:02:55;94674.63;;;11.47;100.00
23363;BME280;11853;48.080;11.960;2023-04-28T09:05:22;94662.50;;;11.53;100.00
23363;BME280;11853;48.080;11.960;2023-04-28T09:07:49;94669.31;;;11.47;100.00
23363;BME280;11853;48.080;11.960;2023-04-28T09:10:23;94664.66;;;11.49;100.00
23363;BME280;11853;48.080;11.960;2023-04-28T09:12:52;94658.38;;;11.50;100.00
23363;BME280;11853;48.080;11.960;2023-04-28T09:15:32;94660.34;;;11.40;100.00
23363;BME280;11853;48.080;11.960;2023-04-28T09:18:05;94660.19;;;11.42;100.00
23363;BME280;11853;48.080;11.960;2023-04-28T09:20:32;94657.03;;;11.46;100.00
23363;BME280;11853;48.080;11.960;2023-04-28T09:23:16;94662.84;;;11.50;100.00
23363;BME280;11853;48.080;11.960;2023-04-28T09:26:00;94661.84;;;11.51;100.00
23363;BME280;11853;48.080;11.960;2023-04-28T09:28:26;94657.38;;;11.60;100.00
23363;BME280;11853;48.080;11.960;2023-04-28T09:30:53;94660.69;;;11.54;100.00
23363;BME280;11853;48.080;11.960;2023-04-28T09:33:19;94650.06;;;11.54;100.00
23363;BME280;11853;48.080;11.960;2023-04-28T09:35:46;94641.09;;;11.46;100.00
23363;BME280;11853;48.080;11.960;2023-04-28T09:38:15;94635.44;;;11.33;100.00
23363;BME280;11853;48.080;11.960;2023-04-28T09:41:01;94640.06;;;11.31;100.00
23363;BME280;11853;48.080;11.960;2023-04-28T09:43:31;94639.06;;;11.32;100.00
23363;BME280;11853;48.080;11.960;2023-04-28T09:46:00;94642.09;;;11.45;100.00
23363;BME280;11853;48.080;11.960;2023-04-28T09:48:36;94643.06;;;11.44;100.00
23363;BME280;11853;48.080;11.960;2023-04-28T09:51:06;94651.03;;;11.36;100.00
23363;BME280;11853;48.080;11.960;2023-04-28T09:53:33;94641.53;;;11.25;100.00
23363;BME280;11853;48.080;11.960;2023-04-28T09:56:01;94644.03;;;11.35;100.00
23363;BME280;11853;48.080;11.960;2023-04-28T09:58:28;94644.88;;;11.44;100.00
23363;BME280;11853;48.080;11.960;2023-04-28T10:00:58;94642.41;;;11.42;100.00
23363;BME280;11853;48.080;11.960;2023-04-28T10:03:26;94648.69;;;11.41;100.00
23363;BME280;11853;48.080;11.960;2023-04-28T10:05:53;94647.06;;;11.48;100.00
23363;BME280;11853;48.080;11.960;2023-04-28T10:08:20;94641.75;;;11.48;100.00
23363;BME280;11853;48.080;11.960;2023-04-28T10:10:48;94638.91;;;11.34;100.00
23363;BME280;11853;48.080;11.960;2023-04-28T10:13:17;94632.75;;;11.41;100.00
23363;BME280;11853;48.080;11.960;2023-04-28T10:15:44;94641.09;;;11.46;100.00
23363;BME280;11853;48.080;11.960;2023-04-28T10:18:14;94635.09;;;11.44;100.00
23363;BME280;11853;48.080;11.960;2023-04-28T10:20:48;94628.94;;;11.44;100.00
23363;BME280;11853;48.080;11.960;2023-04-28T10:26:11;94626.47;;;11.42;100.00
23363;BME280;11853;48.080;11.960;2023-04-28T10:28:48;94610.22;;;11.45;100.00
23363;BME280;11853;48.080;11.960;2023-04-28T10:31:19;94623.63;;;11.44;100.00
23363;BME280;11853;48.080;11.960;2023-04-28T10:33:46;94616.50;;;11.36;100.00
23363;BME280;11853;48.080;11.960;2023-04-28T10:36:49;94607.88;;;11.42;100.00
23363;BME280;11853;48.080;11.960;2023-04-28T10:39:16;94609.88;;;11.48;100.00
23363;BME280;11853;48.080;11.960;2023-04-28T10:41:44;94612.88;;;11.45;100.00
23363;BME280;11853;48.080;11.960;2023-04-28T10:47:03;94616.69;;;11.43;100.00
23363;BME280;11853;48.080;11.960;2023-04-28T10:55:31;94600.56;;;11.28;100.00
23363;BME280;11853;48.080;11.960;2023-04-28T11:00:47;94600.88;;;11.25;100.00
23363;BME280;11853;48.080;11.960;2023-04-28T11:06:21;94595.41;;;11.35;100.00
23363;BME280;11853;48.080;11.960;2023-04-28T11:17:03;94593.75;;;11.50;100.00
23363;BME280;11853;48.080;11.960;2023-04-28T11:19:36;94597.59;;;11.64;100.00
23363;BME280;11853;48.080;11.960;2023-04-28T11:22:19;94605.56;;;11.64;100.00
23363;BME280;11853;48.080;11.960;2023-04-28T11:24:56;94608.56;;;11.61;100.00
23363;BME280;11853;48.080;11.960;2023-04-28T11:27:23;94609.38;;;11.69;100.00
23363;BME280;11853;48.080;11.960;2023-04-28T11:29:49;94606.72;;;11.61;100.00
23363;BME280;11853;48.080;11.960;2023-04-28T11:32:15;94608.72;;;11.67;100.00
23363;BME280;11853;48.080;11.960;2023-04-28T11:34:40;94611.22;;;11.61;100.00
23363;BME280;11853;48.080;11.960;2023-04-28T11:37:07;94612.56;;;11.65;100.00
23363;BME280;11853;48.080;11.960;2023-04-28T11:39:34;94610.88;;;11.64;100.00
23363;BME280;11853;48.080;11.960;2023-04-28T11:42:01;94611.53;;;11.58;100.00
23363;BME280;11853;48.080;11.960;2023-04-28T11:44:30;94608.88;;;11.58;100.00
23363;BME280;11853;48.080;11.960;2023-04-28T11:46:58;94618.22;;;11.62;100.00
23363;BME280;11853;48.080;11.960;2023-04-28T11:49:29;94614.22;;;11.66;100.00
23363;BME280;11853;48.080;11.960;2023-04-28T11:52:04;94614.22;;;11.82;100.00
23363;BME280;11853;48.080;11.960;2023-04-28T11:54:31;94617.91;;;11.89;100.00
23363;BME280;11853;48.080;11.960;2023-04-28T11:56:57;94605.63;;;11.97;100.00
23363;BME280;11853;48.080;11.960;2023-04-28T11:59:34;94613.06;;;12.01;100.00
23363;BME280;11853;48.080;11.960;2023-04-28T12:02:02;94606.59;;;12.04;100.00
23363;BME280;11853;48.080;11.960;2023-04-28T12:07:13;94593.63;;;12.17;100.00
23363;BME280;11853;48.080;11.960;2023-04-28T12:09:47;94595.59;;;12.15;100.00
23363;BME280;11853;48.080;11.960;2023-04-28T12:12:30;94594.59;;;12.24;100.00
23363;BME280;11853;48.080;11.960;2023-04-28T12:14:59;94596.09;;;12.18;100.00
23363;BME280;11853;48.080;11.960;2023-04-28T12:17:39;94590.47;;;12.13;100.00
23363;BME280;11853;48.080;11.960;2023-04-28T12:20:10;94592.94;;;12.15;100.00
23363;BME280;11853;48.080;11.960;2023-04-28T12:22:49;94595.47;;;12.16;100.00
23363;BME280;11853;48.080;11.960;2023-04-28T12:25:18;94606.25;;;12.23;100.00
23363;BME280;11853;48.080;11.960;2023-04-28T12:30:27;94599.22;;;12.30;100.00
23363;BME280;11853;48.080;11.960;2023-04-28T12:32:56;94600.38;;;12.36;100.00
23363;BME280;11853;48.080;11.960;2023-04-28T12:35:23;94595.38;;;12.41;100.00
23363;BME280;11853;48.080;11.960;2023-04-28T12:37:50;94594.88;;;12.46;100.00
23363;BME280;11853;48.080;11.960;2023-04-28T12:40:17;94599.88;;;12.49;100.00
23363;BME280;11853;48.080;11.960;2023-04-28T12:42:42;94600.00;;;12.55;100.00
23363;BME280;11853;48.080;11.960;2023-04-28T12:45:08;94605.81;;;12.59;100.00
23363;BME280;11853;48.080;11.960;2023-04-28T12:47:35;94603.81;;;12.61;100.00
23363;BME280;11853;48.080;11.960;2023-04-28T12:50:01;94599.47;;;12.68;100.00
23363;BME280;11853;48.080;11.960;2023-04-28T12:52:26;94601.59;;;12.73;100.00
23363;BME280;11853;48.080;11.960;2023-04-28T12:54:52;94611.09;;;12.75;100.00
23363;BME280;11853;48.080;11.960;2023-04-28T12:57:18;94602.94;;;12.77;100.00
23363;BME280;11853;48.080;11.960;2023-04-28T12:59:45;94606.91;;;12.81;100.00
23363;BME280;11853;48.080;11.960;2023-04-28T13:02:16;94606.75;;;12.82;100.00
23363;BME280;11853;48.080;11.960;2023-04-28T13:04:42;94604.72;;;12.84;100.00
23363;BME280;11853;48.080;11.960;2023-04-28T13:07:10;94606.72;;;12.91;100.00
23363;BME280;11853;48.080;11.960;2023-04-28T13:09:36;94600.84;;;12.95;100.00
23363;BME280;11853;48.080;11.960;2023-04-28T13:12:02;94598.38;;;12.94;100.00
23363;BME280;11853;48.080;11.960;2023-04-28T13:14:28;94593.34;;;12.99;100.00